createdAt,value
2023-01-12T00:00:25.317Z,90
2023-01-12T00:01:32.463Z,90
2023-01-12T00:02:42.789Z,90
2023-01-12T00:03:49.839Z,90
2023-01-12T00:04:56.809Z,90
2023-01-12T00:06:03.969Z,90
2023-01-12T00:07:11.097Z,90
2023-01-12T00:08:18.231Z,90
2023-01-12T00:09:25.416Z,90
2023-01-12T00:10:32.450Z,90
2023-01-12T00:11:39.581Z,90
2023-01-12T00:12:46.760Z,90
2023-01-12T00:13:53.894Z,90
2023-01-12T00:15:00.567Z,90
2023-01-12T00:16:07.795Z,90
2023-01-12T00:17:19.835Z,90
2023-01-12T00:18:26.920Z,90
2023-01-12T00:19:34.027Z,90
2023-01-12T00:20:41.153Z,90
2023-01-12T00:21:50.860Z,90
2023-01-12T00:23:00.505Z,90
2023-01-12T00:24:07.697Z,90
2023-01-12T00:25:14.722Z,90
2023-01-12T00:26:21.917Z,90
2023-01-12T00:27:28.510Z,90
2023-01-12T00:28:35.610Z,90
2023-01-12T00:29:42.760Z,90
2023-01-12T00:30:49.925Z,90
2023-01-12T00:31:56.548Z,90
2023-01-12T00:33:03.688Z,90
2023-01-12T00:34:10.770Z,90
2023-01-12T00:35:17.888Z,90
2023-01-12T00:36:24.988Z,90
2023-01-12T00:37:31.637Z,90
2023-01-12T00:38:38.805Z,90
2023-01-12T00:40:00.718Z,90
2023-01-12T00:40:53.069Z,90
2023-01-12T00:42:00.157Z,90
2023-01-12T00:43:12.417Z,90
2023-01-12T00:44:24.603Z,90
2023-01-12T00:45:36.932Z,90
2023-01-12T00:46:43.925Z,90
2023-01-12T00:47:51.099Z,90
2023-01-12T00:48:57.700Z,90
2023-01-12T00:50:04.385Z,90
2023-01-12T00:51:11.565Z,90
2023-01-12T00:52:29.753Z,90
2023-01-12T00:53:25.673Z,90
2023-01-12T00:54:32.372Z,90
2023-01-12T00:55:39.456Z,90
2023-01-12T00:56:46.556Z,90
2023-01-12T00:57:53.936Z,90
2023-01-12T00:59:01.052Z,90
2023-01-12T01:00:07.955Z,90
2023-01-12T01:01:15.279Z,90
2023-01-12T01:02:22.209Z,90
2023-01-12T01:03:29.294Z,90
2023-01-12T01:04:36.524Z,90
2023-01-12T01:05:43.548Z,90
2023-01-12T01:06:50.672Z,90
2023-01-12T01:07:57.799Z,90
2023-01-12T01:09:04.924Z,90
2023-01-12T01:10:12.288Z,90
2023-01-12T01:11:19.169Z,90
2023-01-12T01:12:26.252Z,90
2023-01-12T01:13:33.471Z,90
2023-01-12T01:14:40.481Z,90
2023-01-12T01:15:47.667Z,90
2023-01-12T01:16:54.413Z,90
2023-01-12T01:18:01.470Z,90
2023-01-12T01:19:08.530Z,89
2023-01-12T01:20:15.648Z,90
2023-01-12T01:21:22.728Z,90
2023-01-12T01:22:29.416Z,90
2023-01-12T01:23:36.813Z,90
2023-01-12T01:24:43.617Z,90
2023-01-12T01:25:50.765Z,90
2023-01-12T01:26:57.523Z,90
2023-01-12T01:28:04.630Z,90
2023-01-12T01:29:11.819Z,90
2023-01-12T01:30:18.789Z,90
2023-01-12T01:31:26.024Z,90
2023-01-12T01:32:33.163Z,90
2023-01-12T01:33:40.212Z,90
2023-01-12T01:34:47.330Z,90
2023-01-12T01:35:54.117Z,90
2023-01-12T01:37:01.164Z,90
2023-01-12T01:38:08.231Z,90
2023-01-12T01:39:15.421Z,89
2023-01-12T01:40:22.468Z,90
2023-01-12T01:41:29.091Z,90
2023-01-12T01:42:36.269Z,90
2023-01-12T01:43:43.385Z,90
2023-01-12T01:44:53.557Z,90
2023-01-12T01:46:00.715Z,90
2023-01-12T01:47:07.825Z,90
2023-01-12T01:48:14.967Z,90
2023-01-12T01:49:22.061Z,90
2023-01-12T01:50:34.296Z,90
2023-01-12T01:51:41.044Z,90
2023-01-12T01:52:48.077Z,90
2023-01-12T01:54:01.416Z,90
2023-01-12T01:55:08.543Z,90
2023-01-12T01:56:21.669Z,90
2023-01-12T01:57:28.775Z,90
2023-01-12T01:58:38.493Z,90
2023-01-12T01:59:48.248Z,90
2023-01-12T02:00:55.275Z,90
2023-01-12T02:02:02.556Z,90
2023-01-12T02:03:09.116Z,90
2023-01-12T02:04:16.190Z,90
2023-01-12T02:05:23.326Z,90
2023-01-12T02:06:30.539Z,90
2023-01-12T02:07:37.515Z,90
2023-01-12T02:08:44.140Z,90
2023-01-12T02:09:50.910Z,90
2023-01-12T02:10:57.893Z,90
2023-01-12T02:12:05.091Z,89
2023-01-12T02:13:17.364Z,90
2023-01-12T02:14:29.424Z,89
2023-01-12T02:15:41.250Z,90
2023-01-12T02:16:55.966Z,90
2023-01-12T02:18:08.232Z,90
2023-01-12T02:19:20.394Z,89
2023-01-12T02:20:27.499Z,90
2023-01-12T02:21:44.849Z,90
2023-01-12T02:22:59.623Z,90
2023-01-12T02:24:14.417Z,90
2023-01-12T02:25:31.767Z,90
2023-01-12T02:26:41.228Z,90
2023-01-12T02:27:55.980Z,90
2023-01-12T02:29:08.275Z,90
2023-01-12T02:30:20.404Z,90
2023-01-12T02:31:32.750Z,90
2023-01-12T02:32:49.878Z,90
2023-01-12T02:34:02.218Z,90
2023-01-12T02:35:19.402Z,90
2023-01-12T02:36:31.628Z,90
2023-01-12T02:37:48.663Z,90
2023-01-12T02:39:03.701Z,89
2023-01-12T02:40:18.440Z,90
2023-01-12T02:41:33.284Z,90
2023-01-12T02:42:50.547Z,89
2023-01-12T02:44:02.860Z,89
2023-01-12T02:45:09.855Z,89
2023-01-12T02:46:22.132Z,89
2023-01-12T02:47:29.191Z,90
2023-01-12T02:48:41.814Z,89
2023-01-12T02:49:59.361Z,90
2023-01-12T02:51:06.371Z,90
2023-01-12T02:52:18.548Z,90
2023-01-12T02:53:25.634Z,90
2023-01-12T02:54:37.891Z,90
2023-01-12T02:55:44.483Z,90
2023-01-12T02:56:51.184Z,90
2023-01-12T02:57:58.303Z,90
2023-01-12T02:59:05.399Z,90
2023-01-12T03:00:12.527Z,90
2023-01-12T03:01:20.181Z,90
2023-01-12T03:02:27.143Z,90
2023-01-12T03:03:33.784Z,89
2023-01-12T03:04:41.031Z,90
2023-01-12T03:05:48.087Z,90
2023-01-12T03:06:54.778Z,89
2023-01-12T03:08:01.489Z,90
2023-01-12T03:09:08.599Z,90
2023-01-12T03:10:15.713Z,90
2023-01-12T03:11:32.852Z,89
2023-01-12T03:12:39.958Z,90
2023-01-12T03:13:47.012Z,90
2023-01-12T03:14:53.805Z,89
2023-01-12T03:16:00.878Z,89
2023-01-12T03:17:07.846Z,89
2023-01-12T03:18:15.104Z,90
2023-01-12T03:19:22.187Z,89
2023-01-12T03:20:29.135Z,90
2023-01-12T03:21:38.769Z,89
2023-01-12T03:22:45.785Z,89
2023-01-12T03:23:52.735Z,89
2023-01-12T03:25:02.516Z,90
2023-01-12T03:26:09.575Z,90
2023-01-12T03:27:16.776Z,90
2023-01-12T03:28:23.790Z,90
2023-01-12T03:29:31.105Z,90
2023-01-12T03:30:38.118Z,90
2023-01-12T03:31:45.202Z,90
2023-01-12T03:32:52.362Z,90
2023-01-12T03:33:59.446Z,90
2023-01-12T03:35:06.519Z,90
2023-01-12T03:36:13.495Z,90
2023-01-12T03:37:25.373Z,90
2023-01-12T03:38:35.087Z,90
2023-01-12T03:39:42.474Z,90
2023-01-12T03:40:57.439Z,89
2023-01-12T03:42:07.135Z,90
2023-01-12T03:43:16.802Z,90
2023-01-12T03:44:34.073Z,89
2023-01-12T03:45:48.779Z,90
2023-01-12T03:46:58.539Z,90
2023-01-12T03:48:05.605Z,90
2023-01-12T03:49:17.905Z,90
2023-01-12T03:50:29.991Z,90
2023-01-12T03:51:42.258Z,90
2023-01-12T03:52:49.371Z,90
2023-01-12T03:53:56.605Z,90
2023-01-12T03:55:03.639Z,90
2023-01-12T03:56:10.939Z,90
2023-01-12T03:57:18.112Z,90
2023-01-12T03:58:25.019Z,89
2023-01-12T03:59:32.085Z,89
2023-01-12T04:00:38.908Z,90
2023-01-12T04:01:46.120Z,90
2023-01-12T04:02:53.165Z,90
2023-01-12T04:04:05.379Z,90
2023-01-12T04:05:12.525Z,90
2023-01-12T04:06:19.440Z,90
2023-01-12T04:07:26.576Z,90
2023-01-12T04:08:33.221Z,90
2023-01-12T04:09:40.827Z,90
2023-01-12T04:10:47.700Z,90
2023-01-12T04:11:54.704Z,90
2023-01-12T04:13:06.956Z,90
2023-01-12T04:14:14.155Z,90
2023-01-12T04:15:21.103Z,90
2023-01-12T04:16:28.250Z,90
2023-01-12T04:17:35.282Z,90
2023-01-12T04:18:42.083Z,90
2023-01-12T04:19:49.153Z,90
2023-01-12T04:20:56.193Z,90
2023-01-12T04:22:03.297Z,90
2023-01-12T04:23:13.047Z,90
2023-01-12T04:24:20.127Z,90
2023-01-12T04:25:27.265Z,90
2023-01-12T04:26:34.493Z,90
2023-01-12T04:27:41.514Z,90
2023-01-12T04:28:53.911Z,90
2023-01-12T04:30:00.740Z,90
2023-01-12T04:31:07.904Z,90
2023-01-12T04:32:15.034Z,90
2023-01-12T04:33:22.137Z,90
2023-01-12T04:34:29.244Z,90
2023-01-12T04:35:36.545Z,90
2023-01-12T04:36:43.515Z,90
2023-01-12T04:37:50.574Z,89
2023-01-12T04:38:57.263Z,90
2023-01-12T04:40:04.342Z,90
2023-01-12T04:41:13.100Z,89
2023-01-12T04:42:20.148Z,90
2023-01-12T04:43:32.282Z,90
2023-01-12T04:44:39.043Z,90
2023-01-12T04:45:46.132Z,90
2023-01-12T04:46:53.222Z,90
2023-01-12T04:48:00.316Z,89
2023-01-12T04:49:10.005Z,90
2023-01-12T04:50:16.687Z,90
2023-01-12T04:51:23.967Z,90
2023-01-12T04:52:30.942Z,90
2023-01-12T04:53:38.044Z,90
2023-01-12T04:54:44.649Z,90
2023-01-12T04:55:51.757Z,90
2023-01-12T04:56:58.959Z,90
2023-01-12T04:58:06.107Z,90
2023-01-12T04:59:13.143Z,90
2023-01-12T05:00:20.213Z,90
2023-01-12T05:01:27.472Z,90
2023-01-12T05:02:33.983Z,90
2023-01-12T05:03:41.182Z,90
2023-01-12T05:04:48.266Z,90
2023-01-12T05:05:55.413Z,90
2023-01-12T05:07:02.522Z,90
2023-01-12T05:08:09.718Z,90
2023-01-12T05:09:21.815Z,90
2023-01-12T05:10:34.059Z,90
2023-01-12T05:11:40.746Z,90
2023-01-12T05:12:47.921Z,90
2023-01-12T05:13:55.016Z,90
2023-01-12T05:15:02.103Z,90
2023-01-12T05:16:09.882Z,90
2023-01-12T05:17:19.366Z,89
2023-01-12T05:18:26.511Z,90
2023-01-12T05:19:33.652Z,90
2023-01-12T05:20:40.751Z,90
2023-01-12T05:21:47.390Z,90
2023-01-12T05:22:54.115Z,90
2023-01-12T05:24:01.169Z,90
2023-01-12T05:25:08.264Z,90
2023-01-12T05:26:15.364Z,90
2023-01-12T05:27:22.498Z,90
2023-01-12T05:28:29.115Z,90
2023-01-12T05:29:36.172Z,90
2023-01-12T05:30:43.310Z,90
2023-01-12T05:31:50.494Z,90
2023-01-12T05:32:57.155Z,90
2023-01-12T05:34:04.376Z,90
2023-01-12T05:35:11.506Z,90
2023-01-12T05:36:18.600Z,90
2023-01-12T05:37:25.643Z,90
2023-01-12T05:38:32.807Z,90
2023-01-12T05:39:40.188Z,90
2023-01-12T05:40:47.190Z,90
2023-01-12T05:41:54.314Z,90
2023-01-12T05:43:06.431Z,90
2023-01-12T05:44:18.707Z,90
2023-01-12T05:45:25.770Z,90
2023-01-12T05:46:32.881Z,90
2023-01-12T05:47:39.939Z,90
2023-01-12T05:48:46.671Z,90
2023-01-12T05:49:53.800Z,90
2023-01-12T05:51:00.820Z,90
2023-01-12T05:52:08.060Z,90
2023-01-12T05:53:15.274Z,90
2023-01-12T05:54:22.235Z,90
2023-01-12T05:55:29.331Z,90
2023-01-12T05:56:36.462Z,90
2023-01-12T05:57:43.686Z,90
2023-01-12T05:58:50.841Z,90
2023-01-12T06:00:00.992Z,90
2023-01-12T06:01:08.261Z,90
2023-01-12T06:02:15.116Z,90
2023-01-12T06:03:22.242Z,90
2023-01-12T06:04:29.451Z,90
2023-01-12T06:05:36.488Z,90
2023-01-12T06:06:43.225Z,90
2023-01-12T06:07:50.319Z,90
2023-01-12T06:08:57.415Z,90
2023-01-12T06:10:04.513Z,90
2023-01-12T06:11:11.655Z,90
2023-01-12T06:12:23.786Z,90
2023-01-12T06:13:35.536Z,90
2023-01-12T06:14:47.767Z,90
2023-01-12T06:15:55.040Z,90
2023-01-12T06:17:07.246Z,90
2023-01-12T06:18:14.331Z,90
2023-01-12T06:19:21.463Z,90
2023-01-12T06:20:28.526Z,90
2023-01-12T06:21:35.723Z,90
2023-01-12T06:22:42.435Z,90
2023-01-12T06:23:50.778Z,90
2023-01-12T06:25:04.872Z,90
2023-01-12T06:26:16.801Z,90
2023-01-12T06:27:23.546Z,90
2023-01-12T06:28:30.820Z,90
2023-01-12T06:29:40.459Z,90
2023-01-12T06:30:47.623Z,90
2023-01-12T06:31:59.929Z,90
2023-01-12T06:33:06.934Z,90
2023-01-12T06:34:13.946Z,90
2023-01-12T06:35:20.956Z,90
2023-01-12T06:36:28.145Z,90
2023-01-12T06:37:34.832Z,90
2023-01-12T06:38:41.933Z,90
2023-01-12T06:39:49.015Z,90
2023-01-12T06:40:56.127Z,90
2023-01-12T06:42:05.995Z,90
2023-01-12T06:43:18.140Z,90
2023-01-12T06:44:25.101Z,90
2023-01-12T06:45:32.375Z,90
2023-01-12T06:46:39.571Z,90
2023-01-12T06:47:46.173Z,90
2023-01-12T06:48:53.278Z,90
2023-01-12T06:50:00.435Z,90
2023-01-12T06:51:07.513Z,90
2023-01-12T06:52:14.143Z,90
2023-01-12T06:53:21.411Z,90
2023-01-12T06:54:28.290Z,90
2023-01-12T06:55:35.411Z,90
2023-01-12T06:56:42.496Z,90
2023-01-12T06:57:49.216Z,90
2023-01-12T06:58:56.343Z,90
2023-01-12T07:00:03.590Z,90
2023-01-12T07:01:11.302Z,90
2023-01-12T07:02:18.402Z,90
2023-01-12T07:03:25.258Z,90
2023-01-12T07:04:31.957Z,90
2023-01-12T07:05:39.115Z,90
2023-01-12T07:06:46.172Z,90
2023-01-12T07:07:52.808Z,90
2023-01-12T07:09:02.417Z,90
2023-01-12T07:10:09.575Z,90
2023-01-12T07:11:16.732Z,90
2023-01-12T07:12:23.802Z,90
2023-01-12T07:13:30.975Z,90
2023-01-12T07:14:38.131Z,90
2023-01-12T07:15:45.153Z,90
2023-01-12T07:16:51.796Z,90
2023-01-12T07:17:58.932Z,90
2023-01-12T07:19:06.177Z,90
2023-01-12T07:20:13.275Z,90
2023-01-12T07:21:20.238Z,90
2023-01-12T07:22:26.903Z,90
2023-01-12T07:23:34.019Z,90
2023-01-12T07:24:40.831Z,90
2023-01-12T07:25:47.961Z,90
2023-01-12T07:26:54.999Z,90
2023-01-12T07:28:01.675Z,90
2023-01-12T07:29:08.748Z,90
2023-01-12T07:30:15.503Z,90
2023-01-12T07:31:22.519Z,90
2023-01-12T07:32:29.642Z,90
2023-01-12T07:33:36.701Z,89
2023-01-12T07:34:43.400Z,89
2023-01-12T07:35:50.420Z,90
2023-01-12T07:36:57.747Z,90
2023-01-12T07:38:04.408Z,90
2023-01-12T07:39:11.453Z,89
2023-01-12T07:40:18.647Z,90
2023-01-12T07:41:25.600Z,90
2023-01-12T07:42:37.887Z,90
2023-01-12T07:43:45.070Z,90
2023-01-12T07:44:52.184Z,89
2023-01-12T07:45:59.387Z,90
2023-01-12T07:47:06.502Z,90
2023-01-12T07:48:13.588Z,90
2023-01-12T07:49:20.536Z,90
2023-01-12T07:50:27.692Z,90
2023-01-12T07:51:34.450Z,90
2023-01-12T07:52:41.736Z,90
2023-01-12T07:53:48.711Z,90
2023-01-12T07:54:55.851Z,89
2023-01-12T07:56:02.993Z,90
2023-01-12T07:57:10.104Z,89
2023-01-12T07:58:16.907Z,89
2023-01-12T07:59:23.869Z,89
2023-01-12T08:00:30.873Z,89
2023-01-12T08:01:38.287Z,89
2023-01-12T08:02:45.212Z,89
2023-01-12T08:03:52.297Z,89
2023-01-12T08:04:59.068Z,90
2023-01-12T08:06:06.193Z,89
2023-01-12T08:07:13.206Z,89
2023-01-12T08:08:19.909Z,89
2023-01-12T08:09:26.883Z,89
2023-01-12T08:10:33.666Z,90
2023-01-12T08:11:40.719Z,89
2023-01-12T08:12:47.739Z,89
2023-01-12T08:13:54.904Z,89
2023-01-12T08:15:01.631Z,89
2023-01-12T08:16:08.712Z,89
2023-01-12T08:17:15.545Z,89
2023-01-12T08:18:22.351Z,89
2023-01-12T08:19:29.534Z,89
2023-01-12T08:20:36.240Z,89
2023-01-12T08:21:43.531Z,89
2023-01-12T08:22:50.442Z,89
2023-01-12T08:23:57.086Z,89
2023-01-12T08:25:04.347Z,89
2023-01-12T08:26:14.435Z,89
2023-01-12T08:27:23.990Z,89
2023-01-12T08:28:31.214Z,89
2023-01-12T08:29:37.882Z,88
2023-01-12T08:30:47.507Z,89
2023-01-12T08:31:54.721Z,88
2023-01-12T08:33:04.822Z,88
2023-01-12T08:34:12.099Z,89
2023-01-12T08:35:19.209Z,88
2023-01-12T08:36:26.165Z,88
2023-01-12T08:37:33.413Z,88
2023-01-12T08:38:40.516Z,89
2023-01-12T08:39:47.653Z,89
2023-01-12T08:40:54.989Z,88
2023-01-12T08:42:07.076Z,88
2023-01-12T08:43:13.937Z,89
2023-01-12T08:44:23.929Z,88
2023-01-12T08:45:31.069Z,88
2023-01-12T08:46:38.117Z,88
2023-01-12T08:47:51.263Z,88
2023-01-12T08:48:58.050Z,88
2023-01-12T08:50:05.144Z,89
2023-01-12T08:51:12.172Z,88
2023-01-12T08:52:19.295Z,88
2023-01-12T08:53:26.626Z,88
2023-01-12T08:54:33.730Z,88
2023-01-12T08:55:40.737Z,88
2023-01-12T08:56:47.962Z,88
2023-01-12T08:57:54.962Z,88
2023-01-12T08:59:02.075Z,88
2023-01-12T09:00:09.301Z,88
2023-01-12T09:01:16.668Z,88
2023-01-12T09:02:23.619Z,88
2023-01-12T09:03:30.657Z,88
2023-01-12T09:04:37.724Z,88
2023-01-12T09:05:44.478Z,88
2023-01-12T09:06:51.679Z,88
2023-01-12T09:07:58.754Z,88
2023-01-12T09:09:05.756Z,87
2023-01-12T09:10:12.568Z,88
2023-01-12T09:11:19.799Z,88
2023-01-12T09:12:26.549Z,87
2023-01-12T09:13:33.847Z,87
2023-01-12T09:14:40.936Z,87
2023-01-12T09:15:56.638Z,87
2023-01-12T09:16:55.271Z,87
2023-01-12T09:18:02.426Z,87
2023-01-12T09:19:09.649Z,87
2023-01-12T09:20:18.059Z,87
2023-01-12T09:21:24.665Z,87
2023-01-12T09:22:31.760Z,87
2023-01-12T09:23:38.938Z,86
2023-01-12T09:24:46.083Z,87
2023-01-12T09:25:52.834Z,87
2023-01-12T09:26:59.941Z,86
2023-01-12T09:28:06.954Z,86
2023-01-12T09:29:13.760Z,86
2023-01-12T09:30:20.788Z,86
2023-01-12T09:31:27.962Z,86
2023-01-12T09:32:37.980Z,86
2023-01-12T09:33:42.151Z,86
2023-01-12T09:34:48.893Z,85
2023-01-12T09:35:55.991Z,85
2023-01-12T09:37:08.700Z,85
2023-01-12T09:38:15.728Z,85
2023-01-12T09:39:27.545Z,85
2023-01-12T09:40:30.124Z,85
2023-01-12T09:41:37.290Z,85
2023-01-12T09:42:49.353Z,85
2023-01-12T09:44:01.679Z,85
2023-01-12T09:45:19.099Z,85
2023-01-12T09:46:31.175Z,85
2023-01-12T09:47:43.359Z,85
2023-01-12T09:48:58.280Z,84
2023-01-12T09:50:08.948Z,84
2023-01-12T09:51:12.417Z,84
2023-01-12T09:52:24.583Z,84
2023-01-12T09:53:31.773Z,84
2023-01-12T09:54:38.434Z,84
2023-01-12T09:55:45.771Z,84
2023-01-12T09:56:55.426Z,84
2023-01-12T09:58:05.461Z,83
2023-01-12T09:59:20.240Z,83
2023-01-12T10:00:32.640Z,83
2023-01-12T10:01:39.501Z,84
2023-01-12T10:02:46.369Z,83
2023-01-12T10:03:58.355Z,83
2023-01-12T10:05:05.700Z,83
2023-01-12T10:06:12.747Z,83
2023-01-12T10:07:19.881Z,83
2023-01-12T10:08:26.801Z,83
2023-01-12T10:09:39.085Z,83
2023-01-12T10:10:46.275Z,82
2023-01-12T10:12:01.139Z,83
2023-01-12T10:13:08.263Z,82
2023-01-12T10:14:15.246Z,82
2023-01-12T10:15:32.535Z,83
2023-01-12T10:16:44.832Z,82
2023-01-12T10:17:58.130Z,81
2023-01-12T10:19:08.956Z,82
2023-01-12T10:20:15.413Z,82
2023-01-12T10:21:26.475Z,82
2023-01-12T10:22:33.751Z,82
2023-01-12T10:23:48.943Z,81
2023-01-12T10:24:56.113Z,82
2023-01-12T10:26:03.140Z,82
2023-01-12T10:27:20.743Z,82
2023-01-12T10:28:27.614Z,82
2023-01-12T10:29:34.701Z,81
2023-01-12T10:30:41.391Z,81
2023-01-12T10:31:48.566Z,81
2023-01-12T10:32:55.632Z,81
2023-01-12T10:34:07.846Z,81
2023-01-12T10:35:14.743Z,80
2023-01-12T10:36:22.024Z,80
2023-01-12T10:37:29.126Z,79
2023-01-12T10:38:36.233Z,80
2023-01-12T10:39:43.418Z,79
2023-01-12T10:40:54.208Z,79
2023-01-12T10:42:11.507Z,79
2023-01-12T10:43:21.689Z,79
2023-01-12T10:44:28.750Z,79
2023-01-12T10:45:35.760Z,78
2023-01-12T10:46:43.027Z,79
2023-01-12T10:47:50.087Z,78
2023-01-12T10:48:56.815Z,78
2023-01-12T10:50:11.945Z,79
2023-01-12T10:51:24.120Z,79
2023-01-12T10:52:31.198Z,79
2023-01-12T10:53:37.838Z,79
2023-01-12T10:54:47.577Z,80
2023-01-12T10:55:54.716Z,80
2023-01-12T10:57:02.007Z,79
2023-01-12T10:58:14.059Z,79
2023-01-12T10:59:23.664Z,79
2023-01-12T11:00:33.375Z,79
2023-01-12T11:01:40.673Z,78
2023-01-12T11:02:52.737Z,78
2023-01-12T11:03:59.980Z,78
2023-01-12T11:05:07.103Z,77
2023-01-12T11:06:24.234Z,78
2023-01-12T11:07:31.306Z,78
2023-01-12T11:08:38.530Z,78
2023-01-12T11:09:45.635Z,77
2023-01-12T11:10:52.782Z,77
2023-01-12T11:11:59.889Z,77
2023-01-12T11:13:17.367Z,77
2023-01-12T11:14:34.415Z,77
2023-01-12T11:15:41.618Z,77
2023-01-12T11:16:48.728Z,76
2023-01-12T11:17:55.912Z,76
2023-01-12T11:19:13.139Z,76
2023-01-12T11:20:20.273Z,76
2023-01-12T11:21:30.507Z,75
2023-01-12T11:22:37.431Z,75
2023-01-12T11:23:44.563Z,75
2023-01-12T11:24:56.801Z,75
2023-01-12T11:26:14.226Z,75
2023-01-12T11:27:21.234Z,74
2023-01-12T11:28:33.333Z,74
2023-01-12T11:29:43.095Z,74
2023-01-12T11:30:55.290Z,75
2023-01-12T11:32:07.382Z,74
2023-01-12T11:33:19.638Z,74
2023-01-12T11:34:37.032Z,74
2023-01-12T11:35:43.927Z,74
2023-01-12T11:37:01.187Z,73
2023-01-12T11:38:08.327Z,73
2023-01-12T11:39:15.042Z,73
2023-01-12T11:40:27.694Z,73
2023-01-12T11:41:37.433Z,72
2023-01-12T11:42:44.498Z,72
2023-01-12T11:43:56.709Z,73
2023-01-12T11:45:08.983Z,72
2023-01-12T11:46:26.282Z,72
2023-01-12T11:47:41.950Z,72
2023-01-12T11:48:56.739Z,72
2023-01-12T11:50:14.102Z,72
2023-01-12T11:51:31.361Z,72
2023-01-12T11:52:38.434Z,72
2023-01-12T11:53:45.526Z,72
2023-01-12T11:54:52.267Z,72
2023-01-12T11:55:59.455Z,71
2023-01-12T11:57:14.744Z,72
2023-01-12T11:58:26.777Z,72
2023-01-12T11:59:41.514Z,72
2023-01-12T12:00:53.849Z,72
2023-01-12T12:02:06.072Z,72
2023-01-12T12:03:23.349Z,71
2023-01-12T12:04:40.527Z,71
2023-01-12T12:05:52.852Z,70
2023-01-12T12:06:59.919Z,70
2023-01-12T12:08:10.167Z,70
2023-01-12T12:09:19.826Z,70
2023-01-12T12:10:29.422Z,70
2023-01-12T12:11:41.687Z,70
2023-01-12T12:12:46.262Z,70
2023-01-12T12:13:58.580Z,71
2023-01-12T12:15:15.833Z,69
2023-01-12T12:16:33.097Z,69
2023-01-12T12:17:45.343Z,69
2023-01-12T12:18:51.987Z,69
2023-01-12T12:20:06.717Z,69
2023-01-12T12:21:22.039Z,69
2023-01-12T12:22:34.224Z,69
2023-01-12T12:23:51.547Z,69
2023-01-12T12:25:08.738Z,69
2023-01-12T12:26:20.522Z,69
2023-01-12T12:27:27.618Z,68
2023-01-12T12:28:39.982Z,69
2023-01-12T12:29:52.017Z,67
2023-01-12T12:31:09.405Z,67
2023-01-12T12:32:26.647Z,67
2023-01-12T12:33:41.365Z,67
2023-01-12T12:34:58.755Z,66
2023-01-12T12:36:13.978Z,66
2023-01-12T12:37:26.110Z,66
2023-01-12T12:38:40.847Z,67
2023-01-12T12:39:55.593Z,67
2023-01-12T12:41:07.794Z,66
2023-01-12T12:42:20.354Z,67
2023-01-12T12:43:37.314Z,67
2023-01-12T12:44:49.496Z,66
2023-01-12T12:46:09.378Z,66
2023-01-12T12:47:24.622Z,66
2023-01-12T12:48:36.868Z,66
2023-01-12T12:49:51.602Z,66
2023-01-12T12:50:58.749Z,66
2023-01-12T12:52:08.922Z,66
2023-01-12T12:53:16.038Z,66
2023-01-12T12:54:28.253Z,66
2023-01-12T12:55:35.328Z,67
2023-01-12T12:56:42.005Z,67
2023-01-12T12:57:49.171Z,67
2023-01-12T12:59:01.460Z,66
2023-01-12T13:00:08.558Z,66
2023-01-12T13:01:15.766Z,66
2023-01-12T13:02:25.993Z,66
2023-01-12T13:03:43.098Z,66
2023-01-12T13:04:58.316Z,67
2023-01-12T13:06:05.523Z,66
2023-01-12T13:07:20.869Z,66
2023-01-12T13:08:27.912Z,66
2023-01-12T13:09:35.034Z,66
2023-01-12T13:10:42.139Z,66
2023-01-12T13:11:54.442Z,66
2023-01-12T13:13:01.462Z,66
2023-01-12T13:14:08.635Z,66
2023-01-12T13:15:25.834Z,66
2023-01-12T13:16:35.572Z,66
2023-01-12T13:17:42.670Z,66
2023-01-12T13:18:49.386Z,66
2023-01-12T13:20:00.767Z,66
2023-01-12T13:21:03.653Z,66
2023-01-12T13:22:10.787Z,66
2023-01-12T13:23:28.043Z,66
2023-01-12T13:24:42.735Z,66
2023-01-12T13:25:49.906Z,66
2023-01-12T13:26:57.023Z,66
2023-01-12T13:28:04.169Z,66
2023-01-12T13:29:11.398Z,67
2023-01-12T13:30:26.608Z,67
2023-01-12T13:31:33.652Z,67
2023-01-12T13:32:40.272Z,67
2023-01-12T13:33:47.479Z,67
2023-01-12T13:34:54.626Z,67
2023-01-12T13:36:01.706Z,67
2023-01-12T13:37:08.844Z,67
2023-01-12T13:38:26.204Z,67
2023-01-12T13:39:38.380Z,68
2023-01-12T13:40:55.425Z,68
2023-01-12T13:41:52.594Z,68
2023-01-12T13:43:04.830Z,68
2023-01-12T13:44:23.054Z,68
2023-01-12T13:45:32.775Z,68
2023-01-12T13:46:39.978Z,68
2023-01-12T13:47:49.545Z,68
2023-01-12T13:48:56.800Z,68
2023-01-12T13:50:03.930Z,68
2023-01-12T13:51:11.186Z,68
2023-01-12T13:52:21.564Z,68
2023-01-12T13:53:31.340Z,68
2023-01-12T13:54:38.567Z,68
2023-01-12T13:55:48.603Z,68
2023-01-12T13:57:01.001Z,68
2023-01-12T13:58:08.155Z,68
2023-01-12T13:59:20.390Z,68
2023-01-12T14:00:27.414Z,68
2023-01-12T14:01:34.736Z,68
2023-01-12T14:02:41.773Z,68
2023-01-12T14:03:48.730Z,69
2023-01-12T14:05:00.991Z,69
2023-01-12T14:06:15.907Z,68
2023-01-12T14:07:33.065Z,69
2023-01-12T14:08:51.516Z,69
2023-01-12T14:10:05.647Z,68
2023-01-12T14:11:20.585Z,68
2023-01-12T14:12:32.629Z,68
2023-01-12T14:13:44.892Z,69
2023-01-12T14:14:57.084Z,68
2023-01-12T14:16:19.764Z,68
2023-01-12T14:17:31.816Z,68
2023-01-12T14:18:44.018Z,68
2023-01-12T14:19:51.074Z,68
2023-01-12T14:20:57.746Z,68
2023-01-12T14:22:04.938Z,68
2023-01-12T14:23:14.521Z,69
2023-01-12T14:24:26.688Z,68
2023-01-12T14:25:33.912Z,68
2023-01-12T14:26:40.918Z,68
2023-01-12T14:27:47.647Z,68
2023-01-12T14:28:57.871Z,68
2023-01-12T14:30:05.087Z,68
2023-01-12T14:31:12.595Z,68
2023-01-12T14:32:24.810Z,68
2023-01-12T14:33:31.846Z,68
2023-01-12T14:34:38.514Z,68
2023-01-12T14:35:45.595Z,69
2023-01-12T14:36:52.725Z,68
2023-01-12T14:37:59.587Z,68
2023-01-12T14:39:06.488Z,68
2023-01-12T14:40:13.651Z,69
2023-01-12T14:41:23.401Z,68
2023-01-12T14:42:35.501Z,69
2023-01-12T14:43:47.766Z,69
2023-01-12T14:44:59.972Z,69
2023-01-12T14:46:22.484Z,69
2023-01-12T14:47:34.616Z,69
2023-01-12T14:48:39.693Z,69
2023-01-12T14:49:46.705Z,69
2023-01-12T14:50:53.795Z,69
2023-01-12T14:52:11.179Z,69
2023-01-12T14:53:28.982Z,70
2023-01-12T14:54:38.577Z,69
2023-01-12T14:55:45.677Z,69
2023-01-12T14:56:52.858Z,69
2023-01-12T14:58:05.116Z,69
2023-01-12T14:59:12.239Z,70
2023-01-12T15:00:19.489Z,70
2023-01-12T15:01:26.760Z,70
2023-01-12T15:02:33.691Z,70
2023-01-12T15:03:43.928Z,70
2023-01-12T15:04:47.431Z,70
2023-01-12T15:05:59.642Z,70
2023-01-12T15:07:06.628Z,70
2023-01-12T15:08:13.810Z,70
2023-01-12T15:09:26.016Z,70
2023-01-12T15:10:32.988Z,69
2023-01-12T15:11:40.185Z,70
2023-01-12T15:12:46.961Z,70
2023-01-12T15:13:57.145Z,70
2023-01-12T15:15:04.227Z,70
2023-01-12T15:16:16.751Z,70
2023-01-12T15:17:29.234Z,70
2023-01-12T15:18:41.271Z,70
2023-01-12T15:19:53.537Z,70
2023-01-12T15:21:05.864Z,70
2023-01-12T15:22:18.101Z,70
2023-01-12T15:23:30.156Z,70
2023-01-12T15:24:42.421Z,71
2023-01-12T15:25:54.790Z,70
2023-01-12T15:27:06.252Z,70
2023-01-12T15:28:08.924Z,70
2023-01-12T15:29:16.011Z,70
2023-01-12T15:30:23.200Z,71
2023-01-12T15:31:30.304Z,71
2023-01-12T15:32:46.609Z,71
2023-01-12T15:33:44.653Z,71
2023-01-12T15:34:51.675Z,71
2023-01-12T15:35:58.914Z,71
2023-01-12T15:37:05.938Z,71
2023-01-12T15:38:12.679Z,71
2023-01-12T15:39:19.761Z,71
2023-01-12T15:40:26.851Z,71
2023-01-12T15:41:33.974Z,71
2023-01-12T15:42:46.187Z,71
2023-01-12T15:43:53.334Z,71
2023-01-12T15:45:00.491Z,71
2023-01-12T15:46:07.837Z,71
2023-01-12T15:47:14.713Z,71
2023-01-12T15:48:21.954Z,71
2023-01-12T15:49:28.912Z,71
2023-01-12T15:50:36.100Z,71
2023-01-12T15:51:45.738Z,71
2023-01-12T15:52:52.988Z,70
2023-01-12T15:54:00.011Z,71
2023-01-12T15:55:08.790Z,71
2023-01-12T15:56:19.623Z,71
2023-01-12T15:57:26.441Z,71
2023-01-12T15:58:33.609Z,70
2023-01-12T15:59:40.802Z,70
2023-01-12T16:00:48.062Z,71
2023-01-12T16:01:55.324Z,70
2023-01-12T16:03:02.206Z,71
2023-01-12T16:04:40.785Z,70
2023-01-12T16:05:18.993Z,70
2023-01-12T16:06:26.042Z,71
2023-01-12T16:07:35.833Z,70
2023-01-12T16:08:42.949Z,71
2023-01-12T16:09:50.100Z,70
2023-01-12T16:10:57.428Z,70
2023-01-12T16:12:09.604Z,70
2023-01-12T16:13:16.746Z,70
2023-01-12T16:14:23.687Z,70
2023-01-12T16:15:30.785Z,71
2023-01-12T16:16:37.945Z,71
2023-01-12T16:17:45.059Z,70
2023-01-12T16:18:52.285Z,70
2023-01-12T16:20:02.463Z,70
2023-01-12T16:21:09.538Z,71